createdAt,value
2019-04-25T00:02:13.399Z,39.19
2019-04-25T00:04:43.474Z,39.19
2019-04-25T00:07:13.199Z,39.14
2019-04-25T00:09:51.735Z,39.17
2019-04-25T00:12:22.281Z,39.15
2019-04-25T00:14:52.086Z,39.13
2019-04-25T00:17:23.142Z,39.12
2019-04-25T00:19:52.932Z,39.13
2019-04-25T00:22:42.853Z,39.11
2019-04-25T00:25:23.590Z,39.10
2019-04-25T00:27:53.607Z,39.08
2019-04-25T00:30:25.054Z,39.05
2019-04-25T00:32:55.031Z,39.06
2019-04-25T00:35:24.687Z,39.04
2019-04-25T00:37:54.300Z,39.02
2019-04-25T00:40:23.966Z,39.03
2019-04-25T00:42:54.206Z,38.99
2019-04-25T00:45:24.238Z,38.97
2019-04-25T00:47:53.859Z,38.98
2019-04-25T00:50:23.473Z,38.96
2019-04-25T00:52:53.704Z,38.93
2019-04-25T00:55:28.403Z,38.91
2019-04-25T00:57:59.319Z,38.92
2019-04-25T01:00:46.994Z,38.90
2019-04-25T01:03:22.247Z,38.91
2019-04-25T01:05:53.315Z,38.92
2019-04-25T01:08:23.370Z,38.88
2019-04-25T01:10:53.274Z,38.90
2019-04-25T01:13:23.968Z,38.89
2019-04-25T01:15:54.000Z,38.87
2019-04-25T01:18:25.244Z,38.86
2019-04-25T01:20:55.458Z,38.84
2019-04-25T01:23:25.311Z,38.80
2019-04-25T01:25:55.860Z,38.79
2019-04-25T01:28:25.467Z,38.78
2019-04-25T01:30:56.174Z,38.76
2019-04-25T01:33:27.024Z,38.76
2019-04-25T01:36:18.492Z,38.76
2019-04-25T01:39:10.632Z,38.73
2019-04-25T01:41:59.030Z,38.72
2019-04-25T01:44:35.592Z,38.70
2019-04-25T01:47:05.686Z,38.68
2019-04-25T01:49:35.432Z,38.65
2019-04-25T01:52:05.355Z,38.65
2019-04-25T01:54:35.461Z,38.63
2019-04-25T01:57:05.674Z,38.63
2019-04-25T01:59:35.721Z,38.62
2019-04-25T02:02:07.190Z,38.59
2019-04-25T02:04:38.295Z,38.59
2019-04-25T02:07:08.430Z,38.59
2019-04-25T02:09:38.122Z,38.56
2019-04-25T02:12:16.251Z,38.55
2019-04-25T02:14:45.967Z,38.52
2019-04-25T02:17:16.292Z,38.50
2019-04-25T02:19:46.462Z,38.48
2019-04-25T02:22:16.167Z,38.50
2019-04-25T02:24:46.129Z,38.49
2019-04-25T02:27:15.846Z,38.48
2019-04-25T02:29:45.595Z,38.45
2019-04-25T02:32:15.517Z,38.44
2019-04-25T02:34:45.754Z,38.43
2019-04-25T02:37:15.511Z,38.42
2019-04-25T02:39:45.185Z,38.42
2019-04-25T02:42:16.831Z,38.38
2019-04-25T02:44:54.735Z,38.38
2019-04-25T02:47:48.766Z,38.36
2019-04-25T02:50:37.392Z,38.34
2019-04-25T02:53:19.817Z,38.34
2019-04-25T02:55:49.640Z,38.33
2019-04-25T02:58:19.388Z,38.30
2019-04-25T03:00:57.263Z,38.29
2019-04-25T03:03:20.537Z,38.29
2019-04-25T03:05:50.306Z,38.23
2019-04-25T03:08:20.105Z,38.23
2019-04-25T03:10:49.793Z,38.23
2019-04-25T03:13:19.794Z,38.20
2019-04-25T03:15:52.588Z,38.21
2019-04-25T03:18:24.813Z,38.16
2019-04-25T03:21:11.861Z,38.20
2019-04-25T03:23:42.757Z,38.16
2019-04-25T03:26:13.401Z,38.14
2019-04-25T03:28:43.800Z,38.14
2019-04-25T03:31:22.103Z,38.14
2019-04-25T03:33:46.180Z,38.10
2019-04-25T03:36:16.925Z,38.10
2019-04-25T03:38:46.896Z,38.11
2019-04-25T03:41:16.862Z,38.08
2019-04-25T03:43:46.497Z,38.08
2019-04-25T03:46:16.132Z,38.08
2019-04-25T03:48:45.838Z,38.08
2019-04-25T03:51:15.847Z,38.06
2019-04-25T03:53:45.366Z,38.05
2019-04-25T03:56:14.972Z,38.03
2019-04-25T03:58:44.621Z,38.00
2019-04-25T04:01:15.636Z,37.99
2019-04-25T04:03:45.454Z,37.96
2019-04-25T04:06:15.687Z,37.98
2019-04-25T04:08:45.624Z,37.93
2019-04-25T04:11:15.679Z,37.92
2019-04-25T04:13:45.394Z,37.90
2019-04-25T04:16:17.445Z,37.89
2019-04-25T04:18:49.047Z,37.88
2019-04-25T04:21:25.470Z,37.85
2019-04-25T04:24:08.387Z,37.85
2019-04-25T04:26:38.379Z,37.84
2019-04-25T04:29:08.010Z,37.82
2019-04-25T04:31:37.657Z,37.82
2019-04-25T04:34:25.886Z,37.80
2019-04-25T04:36:55.781Z,37.78
2019-04-25T04:39:25.513Z,37.78
2019-04-25T04:41:55.470Z,37.76
2019-04-25T04:44:25.141Z,37.77
2019-04-25T04:46:54.734Z,37.72
2019-04-25T04:49:24.448Z,37.70
2019-04-25T04:51:54.259Z,37.68
2019-04-25T04:54:23.874Z,37.68
2019-04-25T04:56:53.750Z,37.66
2019-04-25T04:59:24.837Z,37.66
2019-04-25T05:02:20.118Z,37.63
2019-04-25T05:05:24.750Z,37.61
2019-04-25T05:07:57.841Z,37.59
2019-04-25T05:10:27.463Z,37.57
2019-04-25T05:12:57.174Z,37.57
2019-04-25T05:15:26.819Z,37.56
2019-04-25T05:17:56.715Z,37.54
2019-04-25T05:20:26.342Z,37.53
2019-04-25T05:22:56.414Z,37.53
2019-04-25T05:25:26.365Z,37.51
2019-04-25T05:28:02.494Z,37.50
2019-04-25T05:30:36.410Z,37.47
2019-04-25T05:33:06.111Z,37.48
2019-04-25T05:35:35.741Z,37.45
2019-04-25T05:38:05.373Z,37.46
2019-04-25T05:40:39.276Z,37.42
2019-04-25T05:43:11.459Z,37.40
2019-04-25T05:45:41.084Z,37.38
2019-04-25T05:48:11.020Z,37.39
2019-04-25T05:50:40.745Z,37.37
2019-04-25T05:53:10.382Z,37.37
2019-04-25T05:55:40.056Z,37.35
2019-04-25T05:58:09.786Z,37.36
2019-04-25T06:00:40.298Z,37.33
2019-04-25T06:03:09.908Z,37.32
2019-04-25T06:05:39.634Z,37.31
2019-04-25T06:08:09.226Z,37.27
2019-04-25T06:10:53.845Z,37.28
2019-04-25T06:13:48.554Z,37.25
2019-04-25T06:16:27.050Z,37.26
2019-04-25T06:19:13.679Z,37.26
2019-04-25T06:21:36.321Z,37.22
2019-04-25T06:24:16.535Z,37.21
2019-04-25T06:27:25.515Z,37.20
2019-04-25T06:30:01.875Z,37.17
2019-04-25T06:32:31.579Z,37.15
2019-04-25T06:35:01.202Z,37.16
2019-04-25T06:37:31.121Z,37.16
2019-04-25T06:40:00.851Z,37.15
2019-04-25T06:42:30.867Z,37.14
2019-04-25T06:45:21.495Z,37.12
2019-04-25T06:48:14.087Z,37.13
2019-04-25T06:50:43.869Z,37.14
2019-04-25T06:53:13.687Z,37.12
2019-04-25T06:55:45.014Z,37.11
2019-04-25T06:58:14.872Z,37.09
2019-04-25T07:00:57.151Z,37.08
2019-04-25T07:03:16.068Z,37.05
2019-04-25T07:05:46.000Z,37.07
2019-04-25T07:08:15.701Z,37.06
2019-04-25T07:10:45.700Z,37.06
2019-04-25T07:13:15.516Z,37.06
2019-04-25T07:15:45.500Z,37.04
2019-04-25T07:18:15.352Z,37.03
2019-04-25T07:20:45.305Z,37.05
2019-04-25T07:23:15.709Z,37.05
2019-04-25T07:25:53.784Z,37.02
2019-04-25T07:28:35.596Z,37.04
2019-04-25T07:31:31.245Z,37.02
2019-04-25T07:34:08.997Z,37.01
2019-04-25T07:36:38.638Z,36.99
2019-04-25T07:39:10.641Z,37.00
2019-04-25T07:41:40.727Z,37.02
2019-04-25T07:44:10.431Z,36.99
2019-04-25T07:46:40.267Z,37.01
2019-04-25T07:49:09.778Z,36.99
2019-04-25T07:51:41.357Z,36.99
2019-04-25T07:54:11.029Z,37.00
2019-04-25T07:56:40.638Z,36.99
2019-04-25T07:59:10.348Z,36.96
2019-04-25T08:01:40.115Z,36.96
2019-04-25T08:04:09.869Z,36.95
2019-04-25T08:06:39.580Z,36.91
2019-04-25T08:09:09.757Z,36.94
2019-04-25T08:11:39.675Z,36.89
2019-04-25T08:14:32.063Z,36.89
2019-04-25T08:17:03.674Z,36.86
2019-04-25T08:19:34.681Z,36.84
2019-04-25T08:22:05.287Z,36.86
2019-04-25T08:24:35.937Z,36.85
2019-04-25T08:27:05.731Z,36.87
2019-04-25T08:29:39.086Z,36.83
2019-04-25T08:32:06.885Z,36.77
2019-04-25T08:34:37.296Z,36.70
2019-04-25T08:37:17.401Z,36.71
2019-04-25T08:39:39.690Z,36.70
2019-04-25T08:42:09.527Z,36.67
2019-04-25T08:44:39.288Z,36.69
2019-04-25T08:47:08.949Z,36.68
2019-04-25T08:50:03.749Z,36.68
2019-04-25T08:52:35.489Z,36.68
2019-04-25T08:55:14.336Z,36.66
2019-04-25T08:58:01.240Z,36.65
2019-04-25T09:00:41.345Z,36.62
2019-04-25T09:03:14.369Z,36.62
2019-04-25T09:05:46.252Z,36.58
2019-04-25T09:08:36.167Z,36.55
2019-04-25T09:11:06.833Z,36.48
2019-04-25T09:13:37.399Z,36.46
2019-04-25T09:16:08.012Z,36.42
2019-04-25T09:18:38.175Z,36.42
2019-04-25T09:21:07.840Z,36.38
2019-04-25T09:23:37.899Z,36.34
2019-04-25T09:26:07.969Z,36.31
2019-04-25T09:28:39.470Z,36.33
2019-04-25T09:31:08.980Z,36.32
2019-04-25T09:33:39.166Z,36.32
2019-04-25T09:36:09.159Z,36.30
2019-04-25T09:38:39.368Z,36.30
2019-04-25T09:41:09.094Z,36.30
2019-04-25T09:43:39.063Z,36.29
2019-04-25T09:46:13.390Z,36.28
2019-04-25T09:49:02.008Z,36.28
2019-04-25T09:51:35.871Z,36.25
2019-04-25T09:54:27.313Z,36.23
2019-04-25T09:57:01.564Z,36.23
2019-04-25T09:59:31.408Z,36.24
2019-04-25T10:02:01.111Z,36.22
2019-04-25T10:04:30.899Z,36.21
2019-04-25T10:07:00.591Z,36.20
2019-04-25T10:09:30.753Z,36.19
2019-04-25T10:12:00.395Z,36.17
2019-04-25T10:15:18.773Z,36.15
2019-04-25T10:17:48.458Z,36.17
2019-04-25T10:20:18.368Z,36.17
2019-04-25T10:22:48.109Z,36.17
2019-04-25T10:25:17.967Z,36.18
2019-04-25T10:27:49.221Z,36.14
2019-04-25T10:30:23.406Z,36.14
2019-04-25T10:32:51.065Z,36.14
2019-04-25T10:35:20.925Z,36.16
2019-04-25T10:37:50.653Z,36.15
2019-04-25T10:40:20.527Z,36.16
2019-04-25T10:42:50.726Z,36.16
2019-04-25T10:45:23.549Z,36.16
2019-04-25T10:47:51.767Z,36.12
2019-04-25T10:50:21.419Z,36.12
2019-04-25T10:52:51.055Z,36.11
2019-04-25T10:55:20.692Z,36.09
2019-04-25T10:57:51.063Z,36.08
2019-04-25T11:00:28.588Z,36.09
2019-04-25T11:03:03.889Z,36.11
2019-04-25T11:05:34.301Z,36.09
2019-04-25T11:08:04.325Z,36.09
2019-04-25T11:10:34.409Z,36.08
2019-04-25T11:13:04.241Z,36.07
2019-04-25T11:15:34.435Z,36.07
2019-04-25T11:18:04.344Z,36.06
2019-04-25T11:20:34.258Z,36.05
2019-04-25T11:23:04.239Z,36.03
2019-04-25T11:25:34.249Z,36.04
2019-04-25T11:28:04.425Z,36.05
2019-04-25T11:30:34.169Z,36.02
2019-04-25T11:33:04.404Z,36.03
2019-04-25T11:35:34.411Z,36.03
2019-04-25T11:38:06.310Z,36.04
2019-04-25T11:40:43.586Z,36.03
2019-04-25T11:43:14.143Z,36.04
2019-04-25T11:45:43.886Z,36.06
2019-04-25T11:48:13.849Z,36.04
2019-04-25T11:50:48.154Z,36.02
2019-04-25T11:53:15.050Z,36.03
2019-04-25T11:55:44.881Z,36.04
2019-04-25T11:58:14.663Z,36.04
2019-04-25T12:00:46.257Z,36.03
2019-04-25T12:03:17.022Z,36.04
2019-04-25T12:05:48.424Z,36.01
2019-04-25T12:08:18.536Z,36.01
2019-04-25T12:10:49.404Z,36.02
2019-04-25T12:13:19.108Z,36.02
2019-04-25T12:15:49.820Z,36.02
2019-04-25T12:18:19.806Z,36.03
2019-04-25T12:20:49.535Z,36.03
2019-04-25T12:23:19.554Z,36.04
2019-04-25T12:25:49.844Z,36.02
2019-04-25T12:28:19.479Z,36.02
2019-04-25T12:30:49.333Z,36.04
2019-04-25T12:33:21.497Z,36.06
2019-04-25T12:35:50.502Z,36.03
2019-04-25T12:38:20.462Z,36.04
2019-04-25T12:40:50.285Z,36.04
2019-04-25T12:43:21.588Z,36.02
2019-04-25T12:46:13.085Z,36.01
2019-04-25T12:48:43.268Z,36.01
2019-04-25T12:51:13.482Z,36.01
2019-04-25T12:53:43.843Z,36.06
2019-04-25T12:56:13.526Z,36.07
2019-04-25T12:58:43.538Z,36.09
2019-04-25T13:01:13.494Z,36.13
2019-04-25T13:03:43.929Z,36.14
2019-04-25T13:06:15.711Z,36.22
2019-04-25T13:08:45.436Z,36.27
2019-04-25T13:11:15.111Z,36.35
2019-04-25T13:13:44.794Z,36.39
2019-04-25T13:16:14.507Z,36.42
2019-04-25T13:18:44.743Z,36.48
2019-04-25T13:21:14.849Z,36.53
2019-04-25T13:23:44.511Z,36.57
2019-04-25T13:26:16.390Z,36.65
2019-04-25T13:29:05.460Z,36.68
2019-04-25T13:32:01.065Z,36.73
2019-04-25T13:34:36.595Z,36.79
2019-04-25T13:37:06.994Z,36.83
2019-04-25T13:39:36.679Z,36.91
2019-04-25T13:42:06.793Z,36.94
2019-04-25T13:44:36.875Z,36.99
2019-04-25T13:47:06.695Z,37.04
2019-04-25T13:49:36.834Z,37.04
2019-04-25T13:52:08.461Z,37.09
2019-04-25T13:54:38.130Z,37.16
2019-04-25T13:57:07.873Z,37.19
2019-04-25T13:59:37.588Z,37.21
2019-04-25T14:02:07.884Z,37.30
2019-04-25T14:04:37.667Z,37.33
2019-04-25T14:07:07.817Z,37.37
2019-04-25T14:09:37.538Z,37.40
2019-04-25T14:12:08.395Z,37.45
2019-04-25T14:14:38.484Z,37.48
2019-04-25T14:17:25.708Z,37.54
2019-04-25T14:20:19.236Z,37.60
2019-04-25T14:22:48.865Z,37.65
2019-04-25T14:25:19.283Z,37.69
2019-04-25T14:27:49.068Z,37.70
2019-04-25T14:30:20.960Z,37.75
2019-04-25T14:32:51.481Z,37.73
2019-04-25T14:35:21.633Z,37.74
2019-04-25T14:37:53.839Z,37.74
2019-04-25T14:40:25.720Z,37.78
2019-04-25T14:42:55.063Z,37.78
2019-04-25T14:45:24.724Z,37.79
2019-04-25T14:47:54.486Z,37.81
2019-04-25T14:50:25.567Z,37.83
2019-04-25T14:52:55.327Z,37.81
2019-04-25T14:55:39.958Z,37.83
2019-04-25T14:58:13.895Z,37.88
2019-04-25T15:00:45.072Z,37.87
2019-04-25T15:03:15.035Z,37.89
2019-04-25T15:05:44.661Z,37.94
2019-04-25T15:08:14.877Z,37.92
2019-04-25T15:10:44.877Z,37.96
2019-04-25T15:13:14.680Z,37.97
2019-04-25T15:15:44.801Z,38.00
2019-04-25T15:18:14.499Z,38.02
2019-04-25T15:20:44.413Z,38.03
2019-04-25T15:23:14.456Z,38.05
2019-04-25T15:25:44.156Z,38.08
2019-04-25T15:28:13.775Z,38.08
2019-04-25T15:30:43.891Z,38.08
2019-04-25T15:33:14.185Z,38.12
2019-04-25T15:35:49.281Z,38.09
2019-04-25T15:38:29.041Z,38.08
2019-04-25T15:41:08.438Z,38.09
2019-04-25T15:43:56.083Z,38.08
2019-04-25T15:46:28.955Z,38.08
2019-04-25T15:48:58.962Z,38.10
2019-04-25T15:51:29.867Z,38.09
2019-04-25T15:53:59.612Z,38.07
2019-04-25T15:56:30.260Z,38.09
2019-04-25T15:58:59.927Z,38.09
2019-04-25T16:01:30.333Z,38.09
2019-04-25T16:04:00.077Z,38.13
2019-04-25T16:06:30.216Z,38.08
2019-04-25T16:08:59.848Z,38.08
2019-04-25T16:11:30.141Z,38.06
2019-04-25T16:14:00.249Z,38.05
2019-04-25T16:16:30.377Z,38.08
2019-04-25T16:19:00.068Z,38.07
2019-04-25T16:21:30.022Z,38.08
2019-04-25T16:23:59.689Z,38.06
2019-04-25T16:26:29.593Z,38.03
2019-04-25T16:28:59.472Z,38.03
2019-04-25T16:31:29.539Z,38.01
2019-04-25T16:34:00.311Z,38.00
2019-04-25T16:36:30.775Z,38.00
2019-04-25T16:39:00.358Z,37.99
2019-04-25T16:41:30.041Z,37.97
2019-04-25T16:44:04.314Z,37.96
2019-04-25T16:46:34.516Z,37.93
2019-04-25T16:49:04.232Z,37.92
2019-04-25T16:51:33.834Z,37.92
2019-04-25T16:54:03.508Z,37.92
2019-04-25T16:56:33.223Z,37.90
2019-04-25T16:59:02.852Z,37.89
2019-04-25T17:01:33.689Z,37.89
2019-04-25T17:04:03.395Z,37.88
2019-04-25T17:06:33.873Z,37.90
2019-04-25T17:09:03.771Z,37.84
2019-04-25T17:11:34.375Z,37.84
2019-04-25T17:14:20.198Z,37.86
2019-04-25T17:17:11.928Z,37.84
2019-04-25T17:19:52.123Z,37.87
2019-04-25T17:22:22.269Z,37.86
2019-04-25T17:24:52.247Z,37.86
2019-04-25T17:27:22.058Z,37.89
2019-04-25T17:29:51.809Z,37.89
2019-04-25T17:32:51.641Z,37.89
2019-04-25T17:35:36.717Z,37.93
2019-04-25T17:38:19.710Z,37.91
2019-04-25T17:40:49.551Z,37.90
2019-04-25T17:43:19.272Z,37.89
2019-04-25T17:45:48.942Z,37.90
2019-04-25T17:48:18.626Z,37.93
2019-04-25T17:50:48.449Z,37.94
2019-04-25T17:53:18.294Z,37.91
2019-04-25T17:55:48.039Z,37.91
2019-04-25T17:58:17.886Z,37.90
2019-04-25T18:00:47.929Z,37.91
2019-04-25T18:03:17.742Z,37.90
2019-04-25T18:05:47.572Z,37.86
2019-04-25T18:08:17.372Z,37.83
2019-04-25T18:10:47.210Z,37.82
2019-04-25T18:13:16.906Z,37.80
2019-04-25T18:15:59.129Z,37.78
2019-04-25T18:18:40.134Z,37.75
2019-04-25T18:21:09.817Z,37.74
2019-04-25T18:23:57.489Z,37.72
2019-04-25T18:26:46.208Z,37.69
2019-04-25T18:29:16.270Z,37.70
2019-04-25T18:31:46.358Z,37.67
2019-04-25T18:34:30.669Z,37.66
2019-04-25T18:37:18.152Z,37.63
2019-04-25T18:39:54.886Z,37.60
2019-04-25T18:42:42.723Z,37.56
2019-04-25T18:45:15.194Z,37.56
2019-04-25T18:47:45.178Z,37.54
2019-04-25T18:50:17.040Z,37.52
2019-04-25T18:52:56.281Z,37.48
2019-04-25T18:55:37.469Z,37.43
2019-04-25T18:58:18.298Z,37.45
2019-04-25T19:01:12.883Z,37.40
2019-04-25T19:04:04.041Z,37.36
2019-04-25T19:06:33.798Z,37.35
2019-04-25T19:09:04.340Z,37.34
2019-04-25T19:11:34.375Z,37.30
2019-04-25T19:14:04.130Z,37.30
2019-04-25T19:16:33.932Z,37.28
2019-04-25T19:19:03.533Z,37.26
2019-04-25T19:21:33.435Z,37.26
2019-04-25T19:24:03.172Z,37.24
2019-04-25T19:26:32.887Z,37.24
2019-04-25T19:29:02.530Z,37.25
2019-04-25T19:31:32.273Z,37.24
2019-04-25T19:34:02.035Z,37.19
2019-04-25T19:36:31.664Z,37.18
2019-04-25T19:39:01.558Z,37.15
2019-04-25T19:41:41.451Z,37.17
2019-04-25T19:44:23.694Z,37.17
2019-04-25T19:46:53.546Z,37.13
2019-04-25T19:49:23.193Z,37.13
2019-04-25T19:51:52.880Z,37.14
2019-04-25T19:54:22.647Z,37.12
2019-04-25T19:56:52.316Z,37.10
2019-04-25T19:59:22.026Z,37.12
2019-04-25T20:01:53.335Z,37.11
2019-04-25T20:04:44.465Z,37.08
2019-04-25T20:07:19.871Z,37.09
2019-04-25T20:10:26.732Z,37.10
2019-04-25T20:12:56.531Z,37.08
2019-04-25T20:15:26.338Z,37.07
2019-04-25T20:17:56.089Z,37.07
2019-04-25T20:20:25.776Z,37.07
2019-04-25T20:22:55.435Z,37.09
2019-04-25T20:25:25.202Z,37.08
2019-04-25T20:27:55.387Z,37.04
2019-04-25T20:30:25.145Z,37.07
2019-04-25T20:32:55.679Z,37.03
2019-04-25T20:35:25.371Z,37.04
2019-04-25T20:37:55.629Z,37.04
2019-04-25T20:40:25.390Z,37.04
2019-04-25T20:42:55.070Z,37.04
2019-04-25T20:45:24.788Z,37.04
2019-04-25T20:47:54.739Z,37.03
2019-04-25T20:50:24.740Z,37.04
2019-04-25T20:52:54.936Z,37.05
2019-04-25T20:55:24.794Z,37.04
2019-04-25T20:57:55.459Z,37.04
2019-04-25T21:00:45.262Z,37.03
2019-04-25T21:03:15.036Z,37.04
2019-04-25T21:05:45.800Z,37.00
2019-04-25T21:08:15.617Z,37.00
2019-04-25T21:10:45.450Z,37.03
2019-04-25T21:13:19.791Z,37.02
2019-04-25T21:16:11.264Z,37.04
2019-04-25T21:18:56.520Z,37.03
2019-04-25T21:21:26.298Z,37.01
2019-04-25T21:23:56.813Z,37.00
2019-04-25T21:26:26.818Z,36.99
2019-04-25T21:28:56.827Z,37.00
2019-04-25T21:31:26.602Z,36.98
2019-04-25T21:33:57.326Z,36.99
2019-04-25T21:36:28.370Z,36.98
2019-04-25T21:38:58.299Z,36.99
2019-04-25T21:41:49.506Z,36.98
2019-04-25T21:44:19.549Z,37.01
2019-04-25T21:46:49.635Z,37.00
2019-04-25T21:49:19.459Z,37.00
2019-04-25T21:51:49.474Z,36.99
2019-04-25T21:54:19.229Z,37.00
2019-04-25T21:56:49.149Z,36.99
2019-04-25T21:59:18.911Z,36.97
2019-04-25T22:01:48.899Z,36.98
2019-04-25T22:04:18.621Z,36.98
2019-04-25T22:06:48.490Z,37.00
2019-04-25T22:09:21.184Z,37.00
2019-04-25T22:11:51.207Z,36.98
2019-04-25T22:14:21.152Z,37.01
2019-04-25T22:16:51.169Z,36.99
2019-04-25T22:19:21.375Z,37.01
2019-04-25T22:21:51.375Z,37.05
2019-04-25T22:24:21.268Z,37.02
2019-04-25T22:26:52.684Z,37.01
2019-04-25T22:29:23.102Z,37.01
2019-04-25T22:32:24.228Z,37.00
2019-04-25T22:34:59.945Z,37.02
2019-04-25T22:37:29.633Z,37.04
2019-04-25T22:39:59.926Z,37.02
2019-04-25T22:42:29.553Z,37.03
2019-04-25T22:45:00.342Z,37.01
2019-04-25T22:47:30.201Z,37.02
2019-04-25T22:50:00.276Z,37.04
2019-04-25T22:52:31.062Z,37.02
2019-04-25T22:55:00.922Z,37.01
2019-04-25T22:57:31.774Z,36.99
2019-04-25T23:00:03.296Z,37.00
2019-04-25T23:02:51.518Z,36.99
2019-04-25T23:05:31.135Z,37.00
2019-04-25T23:08:01.631Z,36.99
2019-04-25T23:10:32.753Z,37.02
2019-04-25T23:13:03.330Z,37.05
2019-04-25T23:15:33.031Z,37.02
2019-04-25T23:18:04.348Z,37.00
2019-04-25T23:20:34.741Z,37.02
2019-04-25T23:23:05.765Z,37.00
2019-04-25T23:25:56.681Z,37.00
2019-04-25T23:28:30.940Z,36.99
2019-04-25T23:31:10.468Z,36.96
2019-04-25T23:33:40.347Z,37.00
2019-04-25T23:36:11.200Z,36.97
2019-04-25T23:38:40.882Z,36.97
2019-04-25T23:41:11.474Z,36.98
2019-04-25T23:43:41.233Z,36.97
2019-04-25T23:46:11.969Z,36.96
2019-04-25T23:48:41.781Z,36.96
2019-04-25T23:51:11.670Z,36.97
2019-04-25T23:53:41.750Z,36.96
2019-04-25T23:56:11.422Z,36.95
2019-04-25T23:58:41.429Z,36.95
